createdAt,value
2018-05-13T00:00:18.614Z,19.75
2018-05-13T00:01:18.550Z,19.77
2018-05-13T00:02:18.591Z,19.75
2018-05-13T00:03:18.754Z,19.75
2018-05-13T00:04:18.431Z,19.78
2018-05-13T00:05:19.113Z,19.73
2018-05-13T00:06:18.590Z,19.75
2018-05-13T00:07:18.491Z,19.77
2018-05-13T00:08:18.610Z,19.78
2018-05-13T00:09:18.501Z,19.77
2018-05-13T00:10:18.562Z,19.77
2018-05-13T00:11:18.707Z,19.77
2018-05-13T00:12:18.479Z,19.77
2018-05-13T00:13:18.434Z,19.75
2018-05-13T00:14:18.599Z,19.74
2018-05-13T00:15:18.494Z,19.75
2018-05-13T00:16:18.461Z,19.75
2018-05-13T00:17:18.561Z,19.75
2018-05-13T00:18:18.602Z,19.74
2018-05-13T00:19:18.601Z,19.75
2018-05-13T00:20:18.631Z,19.75
2018-05-13T00:21:18.500Z,19.77
2018-05-13T00:22:18.417Z,19.75
2018-05-13T00:23:18.455Z,19.77
2018-05-13T00:24:18.579Z,19.77
2018-05-13T00:25:18.505Z,19.74
2018-05-13T00:26:18.470Z,19.77
2018-05-13T00:27:18.606Z,19.74
2018-05-13T00:28:18.452Z,19.74
2018-05-13T00:29:18.755Z,19.74
2018-05-13T00:30:18.592Z,19.74
2018-05-13T00:31:18.485Z,19.75
2018-05-13T00:32:18.481Z,19.73
2018-05-13T00:33:18.624Z,19.74
2018-05-13T00:34:18.578Z,19.73
2018-05-13T00:35:18.562Z,19.73
2018-05-13T00:36:18.508Z,19.74
2018-05-13T00:37:18.677Z,19.74
2018-05-13T00:38:18.550Z,19.73
2018-05-13T00:39:18.532Z,19.74
2018-05-13T00:40:18.511Z,19.74
2018-05-13T00:41:18.605Z,19.75
2018-05-13T00:42:18.409Z,19.73
2018-05-13T00:43:18.556Z,19.7
2018-05-13T00:44:18.452Z,19.71
2018-05-13T00:45:19.120Z,19.73
2018-05-13T00:46:18.542Z,19.73
2018-05-13T00:47:18.592Z,19.74
2018-05-13T00:48:18.509Z,19.73
2018-05-13T00:49:18.470Z,19.7
2018-05-13T00:50:18.611Z,19.73
2018-05-13T00:51:18.408Z,19.7
2018-05-13T00:52:18.632Z,19.71
2018-05-13T00:53:18.511Z,19.73
2018-05-13T00:54:18.575Z,19.71
2018-05-13T00:55:18.410Z,19.71
2018-05-13T00:56:18.595Z,19.71
2018-05-13T00:57:18.467Z,19.71
2018-05-13T00:58:18.613Z,19.71
2018-05-13T00:59:18.381Z,19.74
2018-05-13T01:00:41.417Z,19.71
2018-05-13T01:01:18.530Z,19.7
2018-05-13T01:02:18.508Z,19.71
2018-05-13T01:03:18.667Z,19.71
2018-05-13T01:04:18.471Z,19.7
2018-05-13T01:05:18.551Z,19.71
2018-05-13T01:06:18.786Z,19.71
2018-05-13T01:07:18.467Z,19.73
2018-05-13T01:08:18.525Z,19.73
2018-05-13T01:09:18.431Z,19.68
2018-05-13T01:10:18.556Z,19.68
2018-05-13T01:11:18.467Z,19.67
2018-05-13T01:12:18.619Z,19.7
2018-05-13T01:13:18.763Z,19.7
2018-05-13T01:14:18.445Z,19.7
2018-05-13T01:15:18.608Z,19.7
2018-05-13T01:16:18.417Z,19.68
2018-05-13T01:17:18.543Z,19.7
2018-05-13T01:18:18.628Z,19.7
2018-05-13T01:19:18.754Z,19.7
2018-05-13T01:20:18.532Z,19.7
2018-05-13T01:21:18.571Z,19.68
2018-05-13T01:22:18.568Z,19.7
2018-05-13T01:23:18.453Z,19.73
2018-05-13T01:24:18.497Z,19.68
2018-05-13T01:25:18.575Z,19.65
2018-05-13T01:26:18.557Z,19.71
2018-05-13T01:27:18.511Z,19.7
2018-05-13T01:28:18.510Z,19.71
2018-05-13T01:29:18.911Z,19.7
2018-05-13T01:30:18.549Z,19.68
2018-05-13T01:31:18.431Z,19.67
2018-05-13T01:32:18.648Z,19.65
2018-05-13T01:33:18.576Z,19.7
2018-05-13T01:34:18.430Z,19.67
2018-05-13T01:35:18.401Z,19.68
2018-05-13T01:36:18.443Z,19.68
2018-05-13T01:37:18.648Z,19.65
2018-05-13T01:38:18.428Z,19.68
2018-05-13T01:39:18.410Z,19.67
2018-05-13T01:40:18.538Z,19.65
2018-05-13T01:41:18.489Z,19.68
2018-05-13T01:42:18.473Z,19.67
2018-05-13T01:43:18.584Z,19.67
2018-05-13T01:44:18.394Z,19.68
2018-05-13T01:45:18.600Z,19.67
2018-05-13T01:46:18.610Z,19.67
2018-05-13T01:47:18.530Z,19.67
2018-05-13T01:48:18.489Z,19.68
2018-05-13T01:49:18.729Z,19.68
2018-05-13T01:50:18.479Z,19.65
2018-05-13T01:51:18.644Z,19.68
2018-05-13T01:52:18.548Z,19.65
2018-05-13T01:53:18.414Z,19.68
2018-05-13T01:54:18.450Z,19.68
2018-05-13T01:55:18.456Z,19.67
2018-05-13T01:56:18.589Z,19.67
2018-05-13T01:57:18.571Z,19.68
2018-05-13T01:58:18.444Z,19.68
2018-05-13T01:59:18.574Z,19.64
2018-05-13T02:00:18.551Z,19.67
2018-05-13T02:01:18.454Z,19.67
2018-05-13T02:02:18.480Z,19.67
2018-05-13T02:03:18.439Z,19.65
2018-05-13T02:04:18.608Z,19.67
2018-05-13T02:05:18.423Z,19.67
2018-05-13T02:06:18.519Z,19.67
2018-05-13T02:07:18.575Z,19.65
2018-05-13T02:08:18.456Z,19.65
2018-05-13T02:09:18.633Z,19.65
2018-05-13T02:10:18.573Z,19.64
2018-05-13T02:11:18.369Z,19.65
2018-05-13T02:12:18.597Z,19.67
2018-05-13T02:13:18.421Z,19.67
2018-05-13T02:14:18.471Z,19.68
2018-05-13T02:15:18.624Z,19.67
2018-05-13T02:16:18.413Z,19.65
2018-05-13T02:17:18.452Z,19.68
2018-05-13T02:18:18.687Z,19.67
2018-05-13T02:19:18.533Z,19.64
2018-05-13T02:20:18.480Z,19.65
2018-05-13T02:21:18.549Z,19.65
2018-05-13T02:22:18.482Z,19.65
2018-05-13T02:23:18.536Z,19.65
2018-05-13T02:24:18.448Z,19.64
2018-05-13T02:25:18.699Z,19.65
2018-05-13T02:26:18.614Z,19.67
2018-05-13T02:27:18.545Z,19.65
2018-05-13T02:28:18.528Z,19.65
2018-05-13T02:29:18.433Z,19.61
2018-05-13T02:30:18.520Z,19.63
2018-05-13T02:31:18.416Z,19.64
2018-05-13T02:32:18.404Z,19.63
2018-05-13T02:33:18.590Z,19.63
2018-05-13T02:34:18.421Z,19.64
2018-05-13T02:35:18.632Z,19.67
2018-05-13T02:36:18.615Z,19.64
2018-05-13T02:37:18.525Z,19.63
2018-05-13T02:38:18.420Z,19.64
2018-05-13T02:39:18.479Z,19.63
2018-05-13T02:40:18.404Z,19.63
2018-05-13T02:41:18.405Z,19.63
2018-05-13T02:42:18.527Z,19.63
2018-05-13T02:43:18.512Z,19.64
2018-05-13T02:44:18.545Z,19.63
2018-05-13T02:45:18.592Z,19.64
2018-05-13T02:46:18.407Z,19.63
2018-05-13T02:47:18.332Z,19.63
2018-05-13T02:48:18.535Z,19.6
2018-05-13T02:49:18.715Z,19.63
2018-05-13T02:50:18.463Z,19.64
2018-05-13T02:51:18.499Z,19.63
2018-05-13T02:52:18.476Z,19.61
2018-05-13T02:53:18.443Z,19.63
2018-05-13T02:54:18.585Z,19.61
2018-05-13T02:55:18.494Z,19.61
2018-05-13T02:56:18.406Z,19.61
2018-05-13T02:57:18.610Z,19.61
2018-05-13T02:58:18.625Z,19.63
2018-05-13T02:59:18.839Z,19.63
2018-05-13T03:00:18.643Z,19.63
2018-05-13T03:01:18.592Z,19.63
2018-05-13T03:02:18.491Z,19.6
2018-05-13T03:03:18.542Z,19.61
2018-05-13T03:04:18.351Z,19.63
2018-05-13T03:05:18.491Z,19.63
2018-05-13T03:06:18.538Z,19.6
2018-05-13T03:07:18.592Z,19.6
2018-05-13T03:08:18.500Z,19.63
2018-05-13T03:09:18.596Z,19.61
2018-05-13T03:10:18.791Z,19.61
2018-05-13T03:11:18.655Z,19.63
2018-05-13T03:12:18.357Z,19.63
2018-05-13T03:13:18.564Z,19.6
2018-05-13T03:14:18.422Z,19.61
2018-05-13T03:15:18.600Z,19.6
2018-05-13T03:16:18.609Z,19.6
2018-05-13T03:17:18.504Z,19.61
2018-05-13T03:18:18.518Z,19.61
2018-05-13T03:19:18.807Z,19.6
2018-05-13T03:20:18.714Z,19.61
2018-05-13T03:21:18.338Z,19.6
2018-05-13T03:22:18.571Z,19.6
2018-05-13T03:23:18.514Z,19.61
2018-05-13T03:24:18.497Z,19.63
2018-05-13T03:25:18.509Z,19.64
2018-05-13T03:26:18.583Z,19.61
2018-05-13T03:27:18.637Z,19.6
2018-05-13T03:28:18.607Z,19.6
2018-05-13T03:29:18.595Z,19.61
2018-05-13T03:30:18.500Z,19.6
2018-05-13T03:31:18.482Z,19.64
2018-05-13T03:32:18.402Z,19.6
2018-05-13T03:33:18.595Z,19.61
2018-05-13T03:34:18.581Z,19.61
2018-05-13T03:35:18.414Z,19.58
2018-05-13T03:36:18.464Z,19.6
2018-05-13T03:37:18.549Z,19.58
2018-05-13T03:38:18.533Z,19.61
2018-05-13T03:39:18.363Z,19.6
2018-05-13T03:40:18.570Z,19.63
2018-05-13T03:41:18.418Z,19.61
2018-05-13T03:42:18.481Z,19.6
2018-05-13T03:43:18.362Z,19.58
2018-05-13T03:44:18.506Z,19.6
2018-05-13T03:45:18.464Z,19.63
2018-05-13T03:46:18.580Z,19.64
2018-05-13T03:47:18.448Z,19.6
2018-05-13T03:48:18.524Z,19.63
2018-05-13T03:49:18.438Z,19.6
2018-05-13T03:50:18.335Z,19.61
2018-05-13T03:51:18.543Z,19.6
2018-05-13T03:52:18.680Z,19.6
2018-05-13T03:53:18.426Z,19.61
2018-05-13T03:54:18.484Z,19.6
2018-05-13T03:55:18.534Z,19.61
2018-05-13T03:56:18.912Z,19.61
2018-05-13T03:57:18.477Z,19.6
2018-05-13T03:58:18.508Z,19.57
2018-05-13T03:59:18.425Z,19.61
2018-05-13T04:00:18.354Z,19.6
2018-05-13T04:01:18.413Z,19.58
2018-05-13T04:02:18.404Z,19.6
2018-05-13T04:03:18.496Z,19.6
2018-05-13T04:04:18.791Z,19.57
2018-05-13T04:05:18.355Z,19.61
2018-05-13T04:06:18.565Z,19.58
2018-05-13T04:07:19.044Z,19.6
2018-05-13T04:08:18.551Z,19.6
2018-05-13T04:09:18.546Z,19.61
2018-05-13T04:10:18.521Z,19.63
2018-05-13T04:11:18.568Z,19.61
2018-05-13T04:12:18.580Z,19.6
2018-05-13T04:13:18.395Z,19.57
2018-05-13T04:14:18.475Z,19.61
2018-05-13T04:15:18.419Z,19.57
2018-05-13T04:16:18.705Z,19.58
2018-05-13T04:17:18.484Z,19.63
2018-05-13T04:18:18.404Z,19.57
2018-05-13T04:19:18.409Z,19.58
2018-05-13T04:20:18.564Z,19.6
2018-05-13T04:21:18.418Z,19.6
2018-05-13T04:22:18.348Z,19.6
2018-05-13T04:23:18.409Z,19.57
2018-05-13T04:24:18.442Z,19.6
2018-05-13T04:25:18.823Z,19.61
2018-05-13T04:26:18.592Z,19.58
2018-05-13T04:27:18.379Z,19.6
2018-05-13T04:28:18.450Z,19.6
2018-05-13T04:29:18.576Z,19.61
2018-05-13T04:30:18.560Z,19.58
2018-05-13T04:31:18.516Z,19.58
2018-05-13T04:32:18.608Z,19.6
2018-05-13T04:33:18.380Z,19.6
2018-05-13T04:34:18.676Z,19.58
2018-05-13T04:35:18.619Z,19.6
2018-05-13T04:36:18.559Z,19.6
2018-05-13T04:37:18.358Z,19.6
2018-05-13T04:38:18.560Z,19.57
2018-05-13T04:39:18.946Z,19.6
2018-05-13T04:40:18.476Z,19.61
2018-05-13T04:41:18.502Z,19.61
2018-05-13T04:42:18.560Z,19.6
2018-05-13T04:43:18.474Z,19.6
2018-05-13T04:44:18.835Z,19.58
2018-05-13T04:45:18.524Z,19.6
2018-05-13T04:46:18.271Z,19.58
2018-05-13T04:47:18.516Z,19.6
2018-05-13T04:48:18.423Z,19.61
2018-05-13T04:49:18.743Z,19.6
2018-05-13T04:50:18.489Z,19.6
2018-05-13T04:51:18.541Z,19.57
2018-05-13T04:52:18.547Z,19.57
2018-05-13T04:53:18.370Z,19.61
2018-05-13T04:54:18.765Z,19.58
2018-05-13T04:55:18.362Z,19.58
2018-05-13T04:56:18.379Z,19.57
2018-05-13T04:57:18.563Z,19.61
2018-05-13T04:58:18.502Z,19.6
2018-05-13T04:59:18.621Z,19.6
2018-05-13T05:00:18.305Z,19.58
2018-05-13T05:01:18.529Z,19.63
2018-05-13T05:02:18.491Z,19.58
2018-05-13T05:03:18.872Z,19.57
2018-05-13T05:04:18.279Z,19.6
2018-05-13T05:05:18.440Z,19.6
2018-05-13T05:06:18.344Z,19.63
2018-05-13T05:07:18.566Z,19.6
2018-05-13T05:08:18.406Z,19.6
2018-05-13T05:09:18.490Z,19.57
2018-05-13T05:10:18.494Z,19.6
2018-05-13T05:11:18.499Z,19.6
2018-05-13T05:12:18.370Z,19.57
2018-05-13T05:13:28.419Z,19.57
2018-05-13T05:14:18.392Z,19.57
2018-05-13T05:15:18.636Z,19.6
2018-05-13T05:16:18.336Z,19.56
2018-05-13T05:17:18.531Z,19.61
2018-05-13T05:18:18.264Z,19.58
2018-05-13T05:19:18.538Z,19.58
2018-05-13T05:20:18.541Z,19.6
2018-05-13T05:21:18.447Z,19.6
2018-05-13T05:22:18.511Z,19.61
2018-05-13T05:23:18.430Z,19.63
2018-05-13T05:24:18.507Z,19.58
2018-05-13T05:25:18.497Z,19.57
2018-05-13T05:26:18.405Z,19.61
2018-05-13T05:27:18.295Z,19.6
2018-05-13T05:28:18.452Z,19.58
2018-05-13T05:29:18.401Z,19.61
2018-05-13T05:30:18.428Z,19.6
2018-05-13T05:31:18.648Z,19.57
2018-05-13T05:32:18.372Z,19.6
2018-05-13T05:33:18.540Z,19.58
2018-05-13T05:34:18.419Z,19.57
2018-05-13T05:35:18.711Z,19.6
2018-05-13T05:36:18.458Z,19.58
2018-05-13T05:37:18.375Z,19.58
2018-05-13T05:38:18.276Z,19.58
2018-05-13T05:39:18.486Z,19.58
2018-05-13T05:40:18.368Z,19.61
2018-05-13T05:41:18.598Z,19.6
2018-05-13T05:42:18.407Z,19.6
2018-05-13T05:43:18.453Z,19.58
2018-05-13T05:44:18.324Z,19.56
2018-05-13T05:45:18.538Z,19.56
2018-05-13T05:46:18.514Z,19.57
2018-05-13T05:47:18.368Z,19.56
2018-05-13T05:48:19.029Z,19.58
2018-05-13T05:49:18.423Z,19.56
2018-05-13T05:50:18.463Z,19.6
2018-05-13T05:51:18.388Z,19.58
2018-05-13T05:52:18.478Z,19.54
2018-05-13T05:53:18.437Z,19.57
2018-05-13T05:54:18.355Z,19.56
2018-05-13T05:55:18.445Z,19.56
2018-05-13T05:56:18.342Z,19.54
2018-05-13T05:57:18.372Z,19.57
2018-05-13T05:58:18.420Z,19.57
2018-05-13T05:59:18.443Z,19.56
2018-05-13T06:00:18.383Z,19.56
2018-05-13T06:01:18.471Z,19.58
2018-05-13T06:02:18.506Z,19.57
2018-05-13T06:03:18.991Z,19.57
2018-05-13T06:04:18.250Z,19.57
2018-05-13T06:05:18.255Z,19.56
2018-05-13T06:06:18.441Z,19.57
2018-05-13T06:07:18.509Z,19.57
2018-05-13T06:08:18.481Z,19.56
2018-05-13T06:09:18.543Z,19.57
2018-05-13T06:10:18.360Z,19.54
2018-05-13T06:11:18.647Z,19.57
2018-05-13T06:12:18.925Z,19.56
2018-05-13T06:13:18.681Z,19.57
2018-05-13T06:14:18.221Z,19.57
2018-05-13T06:15:18.613Z,19.57
2018-05-13T06:16:18.346Z,19.57
2018-05-13T06:17:18.473Z,19.56
2018-05-13T06:18:18.298Z,19.57
2018-05-13T06:19:18.399Z,19.56
2018-05-13T06:20:18.449Z,19.57
2018-05-13T06:21:18.437Z,19.57
2018-05-13T06:22:18.445Z,19.56
2018-05-13T06:23:18.319Z,19.57
2018-05-13T06:24:18.569Z,19.57
2018-05-13T06:25:19.023Z,19.54
2018-05-13T06:26:18.478Z,19.54
2018-05-13T06:27:18.261Z,19.54
2018-05-13T06:28:18.547Z,19.53
2018-05-13T06:29:18.585Z,19.58
2018-05-13T06:30:18.446Z,19.57
2018-05-13T06:31:18.483Z,19.56
2018-05-13T06:32:18.348Z,19.56
2018-05-13T06:33:18.669Z,19.54
2018-05-13T06:34:18.670Z,19.56
2018-05-13T06:35:18.319Z,19.58
2018-05-13T06:36:18.324Z,19.56
2018-05-13T06:37:18.614Z,19.56
2018-05-13T06:38:18.378Z,19.57
2018-05-13T06:39:18.576Z,19.57
2018-05-13T06:40:19.171Z,19.56
2018-05-13T06:41:18.298Z,19.58
2018-05-13T06:42:18.440Z,19.57
2018-05-13T06:43:18.367Z,19.54
2018-05-13T06:44:18.375Z,19.56
2018-05-13T06:45:19.211Z,19.58
2018-05-13T06:46:18.359Z,19.57
2018-05-13T06:47:18.501Z,19.54
2018-05-13T06:48:18.404Z,19.57
2018-05-13T06:49:18.455Z,19.56
2018-05-13T06:50:18.322Z,19.56
2018-05-13T06:51:19.208Z,19.53
2018-05-13T06:52:18.503Z,19.56
2018-05-13T06:53:18.523Z,19.56
2018-05-13T06:54:18.435Z,19.56
2018-05-13T06:55:18.637Z,19.54
2018-05-13T06:56:18.426Z,19.57
2018-05-13T06:57:18.768Z,19.56
2018-05-13T06:58:18.516Z,19.56
2018-05-13T06:59:18.305Z,19.56
2018-05-13T07:00:18.543Z,19.56
2018-05-13T07:01:18.353Z,19.58
2018-05-13T07:02:18.372Z,19.57
2018-05-13T07:03:18.480Z,19.58
2018-05-13T07:04:18.529Z,19.56
2018-05-13T07:05:18.479Z,19.54
2018-05-13T07:06:18.519Z,19.56
2018-05-13T07:07:18.456Z,19.57
2018-05-13T07:08:18.322Z,19.58
2018-05-13T07:09:18.464Z,19.57
2018-05-13T07:10:18.974Z,19.54
2018-05-13T07:11:18.450Z,19.56
2018-05-13T07:12:18.451Z,19.56
2018-05-13T07:13:18.378Z,19.53
2018-05-13T07:14:18.230Z,19.56
2018-05-13T07:15:18.552Z,19.57
2018-05-13T07:16:18.533Z,19.56
2018-05-13T07:17:18.416Z,19.57
2018-05-13T07:18:18.267Z,19.56
2018-05-13T07:19:18.482Z,19.57
2018-05-13T07:20:18.513Z,19.57
2018-05-13T07:21:18.425Z,19.56
2018-05-13T07:22:18.400Z,19.54
2018-05-13T07:23:18.435Z,19.54
2018-05-13T07:24:18.479Z,19.57
2018-05-13T07:25:18.422Z,19.56
2018-05-13T07:26:18.412Z,19.57
2018-05-13T07:27:18.592Z,19.56
2018-05-13T07:28:18.365Z,19.57
2018-05-13T07:29:18.927Z,19.56
2018-05-13T07:30:18.457Z,19.56
2018-05-13T07:31:18.642Z,19.56
2018-05-13T07:32:18.532Z,19.58
2018-05-13T07:33:18.463Z,19.56
2018-05-13T07:34:18.470Z,19.56
2018-05-13T07:35:18.314Z,19.54
2018-05-13T07:36:18.637Z,19.56
2018-05-13T07:37:18.499Z,19.56
2018-05-13T07:38:18.432Z,19.54
2018-05-13T07:39:18.488Z,19.57
2018-05-13T07:40:18.529Z,19.56
2018-05-13T07:41:18.316Z,19.57
2018-05-13T07:42:18.382Z,19.56
2018-05-13T07:43:18.829Z,19.56
2018-05-13T07:44:18.248Z,19.56
2018-05-13T07:45:18.505Z,19.57
2018-05-13T07:46:18.588Z,19.58
2018-05-13T07:47:18.610Z,19.57
2018-05-13T07:48:18.372Z,19.57
2018-05-13T07:49:18.438Z,19.57
2018-05-13T07:50:18.550Z,19.54
2018-05-13T07:51:18.406Z,19.58
2018-05-13T07:52:18.531Z,19.56
2018-05-13T07:53:18.417Z,19.58
2018-05-13T07:54:18.297Z,19.63
2018-05-13T07:55:18.333Z,19.61
2018-05-13T07:56:18.613Z,19.64
2018-05-13T07:57:18.468Z,19.67
2018-05-13T07:58:18.310Z,19.67
2018-05-13T07:59:18.382Z,19.7
2018-05-13T08:00:18.372Z,19.68
2018-05-13T08:01:18.656Z,19.74
2018-05-13T08:02:18.773Z,19.71
2018-05-13T08:03:18.316Z,19.78
2018-05-13T08:04:18.364Z,19.74
2018-05-13T08:05:18.390Z,19.78
2018-05-13T08:06:18.904Z,19.78
2018-05-13T08:07:18.425Z,19.77
2018-05-13T08:08:18.476Z,19.75
2018-05-13T08:09:18.359Z,19.75
2018-05-13T08:10:18.537Z,19.74
2018-05-13T08:11:18.285Z,19.75
2018-05-13T08:12:18.425Z,19.75
2018-05-13T08:13:18.328Z,19.78
2018-05-13T08:14:18.426Z,19.77
2018-05-13T08:15:18.281Z,19.77
2018-05-13T08:16:18.340Z,19.77
2018-05-13T08:17:18.397Z,19.78
2018-05-13T08:18:18.398Z,19.8
2018-05-13T08:19:18.271Z,19.78
2018-05-13T08:20:19.208Z,19.78
2018-05-13T08:21:18.453Z,19.78
2018-05-13T08:22:18.463Z,19.8
2018-05-13T08:23:18.426Z,19.78
2018-05-13T08:24:18.350Z,19.78
2018-05-13T08:25:18.364Z,19.77
2018-05-13T08:26:18.534Z,19.8
2018-05-13T08:27:18.500Z,19.8
2018-05-13T08:28:18.421Z,19.8
2018-05-13T08:29:18.383Z,19.8
2018-05-13T08:30:18.441Z,19.77
2018-05-13T08:31:18.488Z,19.75
2018-05-13T08:32:18.290Z,19.77
2018-05-13T08:33:18.363Z,19.8
2018-05-13T08:34:18.576Z,19.77
2018-05-13T08:35:18.305Z,19.78
2018-05-13T08:36:18.558Z,19.75
2018-05-13T08:37:18.463Z,19.75
2018-05-13T08:38:18.501Z,19.73
2018-05-13T08:39:18.452Z,19.74
2018-05-13T08:40:18.412Z,19.73
2018-05-13T08:41:18.705Z,19.74
2018-05-13T08:42:18.469Z,19.73
2018-05-13T08:43:18.295Z,19.68
2018-05-13T08:44:18.209Z,19.7
2018-05-13T08:45:18.365Z,19.7
2018-05-13T08:46:18.382Z,19.68
2018-05-13T08:47:18.796Z,19.67
2018-05-13T08:48:18.323Z,19.7
2018-05-13T08:49:18.302Z,19.67
2018-05-13T08:50:18.494Z,19.68
2018-05-13T08:51:18.322Z,19.67
2018-05-13T08:52:18.361Z,19.67
2018-05-13T08:53:18.579Z,19.67
2018-05-13T08:54:18.793Z,19.65
2018-05-13T08:55:18.526Z,19.67
2018-05-13T08:56:18.584Z,19.67
2018-05-13T08:57:18.307Z,19.67
2018-05-13T08:58:18.513Z,19.67
2018-05-13T08:59:18.432Z,19.67
2018-05-13T09:00:18.535Z,19.64
2018-05-13T09:01:18.368Z,19.68
2018-05-13T09:02:18.221Z,19.65
2018-05-13T09:03:18.387Z,19.65
2018-05-13T09:04:18.449Z,19.64
2018-05-13T09:05:18.289Z,19.7
2018-05-13T09:06:18.310Z,19.7
2018-05-13T09:07:18.618Z,19.78
2018-05-13T09:08:18.474Z,19.77
2018-05-13T09:09:18.263Z,19.77
2018-05-13T09:10:18.358Z,19.81
2018-05-13T09:11:18.352Z,19.84
2018-05-13T09:12:18.327Z,19.85
2018-05-13T09:13:18.533Z,19.88
2018-05-13T09:14:19.120Z,19.88
2018-05-13T09:15:18.430Z,19.88
2018-05-13T09:16:18.397Z,19.89
2018-05-13T09:17:18.622Z,19.89
2018-05-13T09:18:18.323Z,19.92
2018-05-13T09:19:18.247Z,19.92
2018-05-13T09:20:18.669Z,19.91
2018-05-13T09:21:18.436Z,19.92
2018-05-13T09:22:18.272Z,19.93
2018-05-13T09:23:18.630Z,19.95
2018-05-13T09:24:18.281Z,19.96
2018-05-13T09:25:18.388Z,19.98
2018-05-13T09:26:18.384Z,20.01
2018-05-13T09:27:18.387Z,19.99
2018-05-13T09:28:18.388Z,20.01
2018-05-13T09:29:18.426Z,20.02
2018-05-13T09:30:18.364Z,20.04
2018-05-13T09:31:18.344Z,20.04
2018-05-13T09:32:18.345Z,20.04
2018-05-13T09:33:18.427Z,20.02
2018-05-13T09:34:18.435Z,20.05
2018-05-13T09:35:18.334Z,20.07
2018-05-13T09:36:18.358Z,20.07
2018-05-13T09:37:18.420Z,20.08
2018-05-13T09:38:18.513Z,20.08
2018-05-13T09:39:18.294Z,20.04
2018-05-13T09:40:18.456Z,20.08
2018-05-13T09:41:18.367Z,20.09
2018-05-13T09:42:18.422Z,20.11
2018-05-13T09:43:18.611Z,20.11
2018-05-13T09:44:18.383Z,20.05
2018-05-13T09:45:18.654Z,20.09
2018-05-13T09:46:18.674Z,20.07
2018-05-13T09:47:18.815Z,20.08
2018-05-13T09:48:18.581Z,20.05
2018-05-13T09:49:18.621Z,20.05
2018-05-13T09:50:18.546Z,20.04
2018-05-13T09:51:28.703Z,20.05
2018-05-13T09:52:18.592Z,20.04
2018-05-13T09:53:18.738Z,20.05
2018-05-13T09:54:18.709Z,20.05
2018-05-13T09:55:18.818Z,20.07
2018-05-13T09:56:18.349Z,20.04
2018-05-13T09:57:19.043Z,20.05
2018-05-13T09:58:18.581Z,20.02
2018-05-13T09:59:18.761Z,20.04
2018-05-13T10:00:18.671Z,20.04
2018-05-13T10:01:18.628Z,20.04
2018-05-13T10:02:18.900Z,20.02
2018-05-13T10:03:18.767Z,20.02
2018-05-13T10:04:18.681Z,20.02
2018-05-13T10:05:18.627Z,20.04
2018-05-13T10:06:18.636Z,20.01
2018-05-13T10:07:18.242Z,20.02
2018-05-13T10:08:18.811Z,19.99
2018-05-13T10:09:18.361Z,20.02
2018-05-13T10:10:18.417Z,19.99
2018-05-13T10:11:18.661Z,19.99
2018-05-13T10:12:18.174Z,20.01
2018-05-13T10:13:18.788Z,19.99
2018-05-13T10:14:18.319Z,19.99
2018-05-13T10:15:18.869Z,19.99
2018-05-13T10:16:18.205Z,19.99
2018-05-13T10:17:18.801Z,19.96
2018-05-13T10:18:18.347Z,19.98
2018-05-13T10:19:18.449Z,19.99
2018-05-13T10:20:18.410Z,19.99
2018-05-13T10:21:18.693Z,19.96
2018-05-13T10:22:18.529Z,19.99
2018-05-13T10:23:18.197Z,19.96
2018-05-13T10:24:18.505Z,19.99
2018-05-13T10:25:18.357Z,19.96
2018-05-13T10:26:18.373Z,19.96
2018-05-13T10:27:18.794Z,19.98
2018-05-13T10:28:18.592Z,19.98
2018-05-13T10:29:18.439Z,19.98
2018-05-13T10:30:18.340Z,19.96
2018-05-13T10:31:18.434Z,19.95
2018-05-13T10:32:18.335Z,19.95
2018-05-13T10:33:18.309Z,19.98
2018-05-13T10:34:18.262Z,19.96
2018-05-13T10:35:18.298Z,19.99
2018-05-13T10:36:18.645Z,20.01
2018-05-13T10:37:18.423Z,20.02
2018-05-13T10:38:18.538Z,20.04
2018-05-13T10:39:18.263Z,20.05
2018-05-13T10:40:18.487Z,20.07
2018-05-13T10:41:18.502Z,20.07
2018-05-13T10:42:18.509Z,20.04
2018-05-13T10:43:18.260Z,20.05
2018-05-13T10:44:18.359Z,20.07
2018-05-13T10:45:18.421Z,20.04
2018-05-13T10:46:18.312Z,20.05
2018-05-13T10:47:18.410Z,20.02
2018-05-13T10:48:18.559Z,20.04
2018-05-13T10:49:18.215Z,20.01
2018-05-13T10:50:18.317Z,20.02
2018-05-13T10:51:18.510Z,20.02
2018-05-13T10:52:18.724Z,20.02
2018-05-13T10:53:18.395Z,20.01
2018-05-13T10:54:18.281Z,20.02
2018-05-13T10:55:18.321Z,20.01
2018-05-13T10:56:18.403Z,19.99
2018-05-13T10:57:18.516Z,20.01
2018-05-13T10:58:18.242Z,19.99
2018-05-13T10:59:18.275Z,20.01
2018-05-13T11:00:18.169Z,20.01
2018-05-13T11:01:18.352Z,19.99
2018-05-13T11:02:18.262Z,20.02
2018-05-13T11:03:18.538Z,19.99
2018-05-13T11:04:18.300Z,20.04
2018-05-13T11:05:18.337Z,20.04
2018-05-13T11:06:18.350Z,20.04
2018-05-13T11:07:18.348Z,20.04
2018-05-13T11:08:18.586Z,20.01
2018-05-13T11:09:18.171Z,20.04
2018-05-13T11:10:19.072Z,20.02
2018-05-13T11:11:18.345Z,20.04
2018-05-13T11:12:18.366Z,20.02
2018-05-13T11:13:18.298Z,20.02
2018-05-13T11:14:18.359Z,20.01
2018-05-13T11:15:18.294Z,20.02
2018-05-13T11:16:18.493Z,20.02
2018-05-13T11:17:18.214Z,19.99
2018-05-13T11:18:18.457Z,20.01
2018-05-13T11:19:18.399Z,20.04
2018-05-13T11:20:18.503Z,20.05
2018-05-13T11:21:18.243Z,20.02
2018-05-13T11:22:18.305Z,20.04
2018-05-13T11:23:18.226Z,20.02
2018-05-13T11:24:18.179Z,20.04
2018-05-13T11:25:18.324Z,20.02
2018-05-13T11:26:18.323Z,20.02
2018-05-13T11:27:18.341Z,20.02
2018-05-13T11:28:18.392Z,20.01
2018-05-13T11:29:18.339Z,20.02
2018-05-13T11:30:18.369Z,20.04
2018-05-13T11:31:18.387Z,20.01
2018-05-13T11:32:18.321Z,20.02
2018-05-13T11:33:18.301Z,20.01
2018-05-13T11:34:18.257Z,20.01
2018-05-13T11:35:18.447Z,19.99
2018-05-13T11:36:18.267Z,20.01
2018-05-13T11:37:18.433Z,19.99
2018-05-13T11:38:18.340Z,20.01
2018-05-13T11:39:18.271Z,20.02
2018-05-13T11:40:18.330Z,20.02
2018-05-13T11:41:18.408Z,20.02
2018-05-13T11:42:18.375Z,20.02
2018-05-13T11:43:18.322Z,20.02
2018-05-13T11:44:18.450Z,20.04
2018-05-13T11:45:18.340Z,20.05
2018-05-13T11:46:18.305Z,20.02
2018-05-13T11:47:18.347Z,20.05
2018-05-13T11:48:18.971Z,20.05
2018-05-13T11:49:18.467Z,20.07
2018-05-13T11:50:18.616Z,20.07
2018-05-13T11:51:18.485Z,20.08
2018-05-13T11:52:18.494Z,20.08
2018-05-13T11:53:18.322Z,20.09
2018-05-13T11:54:18.477Z,20.08
2018-05-13T11:55:18.259Z,20.09
2018-05-13T11:56:18.124Z,20.08
2018-05-13T11:57:18.503Z,20.08
2018-05-13T11:58:18.452Z,20.09
2018-05-13T11:59:18.264Z,20.05
2018-05-13T12:00:18.402Z,20.08
2018-05-13T12:01:18.314Z,20.07
2018-05-13T12:02:18.415Z,20.05
2018-05-13T12:03:18.266Z,20.07
2018-05-13T12:04:18.266Z,20.08
2018-05-13T12:05:18.251Z,20.07
2018-05-13T12:06:18.324Z,20.04
2018-05-13T12:07:18.235Z,20.04
2018-05-13T12:08:18.390Z,20.04
2018-05-13T12:09:18.276Z,20.07
2018-05-13T12:10:18.713Z,20.02
2018-05-13T12:11:18.270Z,20.02
2018-05-13T12:12:18.351Z,20.02
2018-05-13T12:13:18.306Z,20.02
2018-05-13T12:14:18.229Z,20.04
2018-05-13T12:15:18.430Z,20.04
2018-05-13T12:16:18.447Z,20.08
2018-05-13T12:17:18.370Z,20.09
2018-05-13T12:18:18.386Z,20.07
2018-05-13T12:19:18.245Z,20.07
2018-05-13T12:20:18.318Z,20.07
2018-05-13T12:21:18.178Z,20.04
2018-05-13T12:22:18.316Z,20.07
2018-05-13T12:23:18.365Z,20.04
2018-05-13T12:24:18.197Z,20.05
2018-05-13T12:25:18.227Z,20.02
2018-05-13T12:26:18.381Z,20.01
2018-05-13T12:27:18.262Z,19.98
2018-05-13T12:28:18.391Z,19.98
2018-05-13T12:29:18.363Z,19.95
2018-05-13T12:30:18.331Z,19.96
2018-05-13T12:31:18.365Z,19.96
2018-05-13T12:32:18.401Z,19.95
2018-05-13T12:33:18.256Z,19.95
2018-05-13T12:34:18.143Z,19.93
2018-05-13T12:35:18.345Z,19.93
2018-05-13T12:36:18.326Z,19.95
2018-05-13T12:37:18.344Z,19.93
2018-05-13T12:38:18.421Z,19.95
2018-05-13T12:39:18.403Z,19.93
2018-05-13T12:40:18.478Z,19.92
2018-05-13T12:41:18.313Z,19.92
2018-05-13T12:42:18.360Z,19.89
2018-05-13T12:43:18.156Z,19.89
2018-05-13T12:44:18.295Z,19.92
2018-05-13T12:45:18.443Z,19.89
2018-05-13T12:46:18.378Z,19.91
2018-05-13T12:47:18.170Z,19.89
2018-05-13T12:48:18.334Z,19.89
2018-05-13T12:49:18.367Z,19.89
2018-05-13T12:50:18.444Z,19.89
2018-05-13T12:51:18.446Z,19.89
2018-05-13T12:52:18.318Z,19.89
2018-05-13T12:53:18.516Z,19.89
2018-05-13T12:54:18.147Z,19.86
2018-05-13T12:55:18.226Z,19.86